Time;durP1;ratioP1;P1;durP2;ratioP2;P2;SDS_P1;SDS_P2;PMS_P1;PMS_P2;Temp;Humidity;BMP_temperature;BMP_pressure;BME280_temperature;BME280_humidity;BME280_pressure;Samples;Min_cycle;Max_cycle;Signal;HPM_P1;HPM_P2
2023/12/05 00:01:18;;;;;;;31.52;16.85;;;-0.10;99.90;;;;;;5048470;28;20028;-51
2023/12/05 00:03:43;;;;;;;36.75;17.90;;;0.00;99.90;;;;;;5048271;28;20075;-51
2023/12/05 00:06:12;;;;;;;36.75;18.20;;;0.00;99.90;;;;;;5048331;28;20041;-52
2023/12/05 00:08:38;;;;;;;33.20;17.15;;;-0.10;99.90;;;;;;5046698;28;20509;-52
2023/12/05 00:11:05;;;;;;;31.30;16.13;;;0.00;99.90;;;;;;5048487;28;20116;-52
2023/12/05 00:13:31;;;;;;;33.20;17.40;;;0.00;99.90;;;;;;5048317;28;20078;-50
2023/12/05 00:15:56;;;;;;;33.53;17.38;;;0.00;99.90;;;;;;5048330;28;20024;-52
2023/12/05 00:18:23;;;;;;;33.22;17.65;;;0.00;99.90;;;;;;5048248;28;20474;-50
2023/12/05 00:20:49;;;;;;;32.08;16.48;;;0.00;99.90;;;;;;5052314;28;20025;-51
2023/12/05 00:23:15;;;;;;;33.78;17.02;;;0.00;99.90;;;;;;5052482;28;20032;-49
2023/12/05 00:25:40;;;;;;;33.67;17.65;;;0.00;99.90;;;;;;5052056;28;20131;-50
2023/12/05 00:28:06;;;;;;;35.90;18.17;;;0.00;99.90;;;;;;5051602;28;20095;-50
2023/12/05 00:30:31;;;;;;;37.25;18.23;;;0.00;99.90;;;;;;5051873;28;20096;-53
2023/12/05 00:32:57;;;;;;;38.05;19.92;;;0.10;99.90;;;;;;5051906;28;20505;-51
2023/12/05 00:35:24;;;;;;;34.53;17.70;;;0.00;99.90;;;;;;5052373;28;20045;-49
2023/12/05 00:37:49;;;;;;;34.92;18.52;;;0.10;99.90;;;;;;5052354;28;20025;-49
2023/12/05 00:40:15;;;;;;;34.95;18.60;;;0.10;99.90;;;;;;5050543;28;20040;-50
2023/12/05 00:42:41;;;;;;;32.50;18.90;;;0.10;99.90;;;;;;5051996;28;20033;-49
2023/12/05 00:45:07;;;;;;;31.67;17.25;;;0.10;99.90;;;;;;5051994;28;20095;-49
2023/12/05 00:47:33;;;;;;;37.22;17.90;;;0.00;99.90;;;;;;5051851;28;20025;-49
2023/12/05 00:49:59;;;;;;;37.97;18.63;;;0.10;99.90;;;;;;5051910;28;20094;-49
2023/12/05 00:52:24;;;;;;;37.78;20.35;;;0.10;99.90;;;;;;5052320;28;20370;-49
2023/12/05 00:54:50;;;;;;;36.30;18.10;;;0.10;99.90;;;;;;5051652;28;20494;-48
2023/12/05 00:57:15;;;;;;;34.55;17.42;;;0.10;99.90;;;;;;5045417;28;20029;-49
2023/12/05 00:59:41;;;;;;;35.40;17.88;;;0.10;99.90;;;;;;5042458;28;20033;-50
2023/12/05 01:02:09;;;;;;;38.17;18.90;;;0.10;99.90;;;;;;5052054;28;20057;-51
2023/12/05 01:04:35;;;;;;;38.28;19.08;;;0.20;99.90;;;;;;5051550;28;20482;-48
2023/12/05 01:07:01;;;;;;;39.42;19.40;;;0.10;99.90;;;;;;5051532;28;20099;-49
2023/12/05 01:09:26;;;;;;;36.88;19.63;;;0.10;99.90;;;;;;5050947;28;20040;-49
2023/12/05 01:11:52;;;;;;;34.70;18.70;;;0.10;99.90;;;;;;5051570;28;20500;-49
2023/12/05 01:14:17;;;;;;;37.47;18.48;;;0.10;99.90;;;;;;5051709;28;20028;-51
2023/12/05 01:16:43;;;;;;;37.85;19.25;;;0.10;99.90;;;;;;5051351;28;20555;-49
2023/12/05 01:19:09;;;;;;;39.58;19.92;;;0.10;99.90;;;;;;5051031;28;20028;-50
2023/12/05 01:21:35;;;;;;;34.80;19.58;;;0.10;99.90;;;;;;5051592;28;20031;-49
2023/12/05 01:24:01;;;;;;;40.38;18.65;;;0.10;99.90;;;;;;5051105;28;20029;-50
2023/12/05 01:26:26;;;;;;;40.67;19.42;;;0.10;99.90;;;;;;5049790;28;20021;-50
2023/12/05 01:28:52;;;;;;;39.47;19.17;;;0.10;99.90;;;;;;5051119;28;20029;-50
2023/12/05 01:31:18;;;;;;;36.58;18.67;;;0.10;99.90;;;;;;5050592;28;20033;-49
2023/12/05 01:33:43;;;;;;;32.28;18.33;;;0.10;99.90;;;;;;5050993;28;20526;-48
2023/12/05 01:36:12;;;;;;;41.28;21.40;;;0.10;99.90;;;;;;5049917;28;20021;-53
2023/12/05 01:38:39;;;;;;;34.25;18.38;;;0.00;99.90;;;;;;5050429;28;20025;-49
2023/12/05 01:41:05;;;;;;;34.97;19.58;;;0.10;99.90;;;;;;5049811;28;20029;-49
2023/12/05 01:43:31;;;;;;;35.75;19.17;;;0.10;99.90;;;;;;5050964;28;20021;-48
2023/12/05 01:45:58;;;;;;;41.90;19.30;;;0.10;99.90;;;;;;5050804;28;20033;-51
2023/12/05 01:48:25;;;;;;;38.75;20.02;;;0.00;99.90;;;;;;5050463;28;20215;-49
2023/12/05 01:50:52;;;;;;;39.47;19.42;;;0.10;99.90;;;;;;5050390;28;20575;-49
2023/12/05 01:53:20;;;;;;;32.60;18.08;;;0.10;99.90;;;;;;5050784;28;20024;-51
2023/12/05 01:55:46;;;;;;;37.25;17.70;;;0.10;99.90;;;;;;5050662;28;20186;-52
2023/12/05 01:58:12;;;;;;;34.80;18.85;;;0.10;99.90;;;;;;5050526;28;20342;-50
2023/12/05 02:00:40;;;;;;;33.53;19.85;;;0.00;99.90;;;;;;5050360;28;20021;-50
2023/12/05 02:03:07;;;;;;;35.25;17.92;;;0.00;99.90;;;;;;5050577;28;20025;-53
2023/12/05 02:05:33;;;;;;;36.75;19.10;;;0.10;99.90;;;;;;5050195;28;20060;-52
2023/12/05 02:07:59;;;;;;;33.50;18.23;;;0.00;99.90;;;;;;5050450;28;20025;-53
2023/12/05 02:10:25;;;;;;;42.08;20.77;;;0.00;99.90;;;;;;5050240;28;20033;-51
2023/12/05 02:12:50;;;;;;;41.85;21.15;;;0.00;99.90;;;;;;5049897;28;20029;-48
2023/12/05 02:15:16;;;;;;;39.50;19.73;;;0.00;99.90;;;;;;5065603;28;20017;-49
2023/12/05 02:18:02;;;;;;;37.88;19.15;;;0.00;99.90;;;;;;5049868;28;20060;-51
2023/12/05 02:20:51;;;;;;;39.13;18.73;;;-0.10;99.90;;;;;;5049666;28;20486;-50
2023/12/05 02:23:29;;;;;;;37.45;19.70;;;-0.10;99.90;;;;;;5050222;28;20052;-49
2023/12/05 02:25:57;;;;;;;35.42;18.67;;;-0.10;99.90;;;;;;5050366;28;20391;-52
2023/12/05 02:28:27;;;;;;;40.17;20.95;;;-0.10;99.90;;;;;;5049908;28;20017;-51
2023/12/05 02:30:52;;;;;;;38.75;18.27;;;-0.10;99.90;;;;;;5033813;28;20497;-49
2023/12/05 02:33:18;;;;;;;38.20;19.70;;;0.00;99.90;;;;;;5050177;28;20044;-50
2023/12/05 02:35:45;;;;;;;42.83;19.52;;;0.00;99.90;;;;;;5049226;28;20074;-52
2023/12/05 02:38:17;;;;;;;38.17;19.80;;;-0.10;99.90;;;;;;5050024;28;20017;-51
2023/12/05 02:41:01;;;;;;;36.78;19.00;;;-0.10;99.90;;;;;;5049153;28;20028;-49
2023/12/05 02:43:56;;;;;;;37.60;19.50;;;0.00;99.90;;;;;;5049518;28;20406;-50
2023/12/05 02:46:21;;;;;;;38.75;19.92;;;0.00;99.90;;;;;;5049902;28;20017;-52
2023/12/05 02:48:49;;;;;;;38.00;19.30;;;-0.10;99.90;;;;;;5049380;28;20094;-50
2023/12/05 02:51:14;;;;;;;40.00;21.00;;;-0.10;99.90;;;;;;5049341;28;20021;-49
2023/12/05 02:53:40;;;;;;;39.00;21.40;;;-0.10;99.90;;;;;;5049926;28;20079;-52
2023/12/05 02:56:06;;;;;;;43.47;21.23;;;0.00;99.90;;;;;;5049633;28;20017;-53
2023/12/05 02:58:32;;;;;;;44.20;20.70;;;-0.10;99.90;;;;;;5049344;28;20025;-49
2023/12/05 03:01:00;;;;;;;40.95;20.10;;;-0.10;99.90;;;;;;5049367;28;20539;-51
2023/12/05 03:03:25;;;;;;;41.42;19.80;;;-0.10;99.90;;;;;;5049377;28;20397;-51
2023/12/05 03:05:51;;;;;;;41.17;21.42;;;-0.10;99.90;;;;;;5049106;28;20029;-50
2023/12/05 03:08:16;;;;;;;40.17;20.75;;;-0.10;99.90;;;;;;5049029;28;20029;-50
2023/12/05 03:10:42;;;;;;;43.28;20.42;;;-0.10;99.90;;;;;;5048848;28;20044;-51
2023/12/05 03:13:08;;;;;;;45.25;21.13;;;-0.10;99.90;;;;;;5049073;28;20021;-49
2023/12/05 03:15:33;;;;;;;42.70;21.77;;;-0.20;99.90;;;;;;5047812;28;20442;-52
2023/12/05 03:17:59;;;;;;;44.88;22.33;;;-0.10;99.90;;;;;;5048866;28;20100;-49
2023/12/05 03:20:24;;;;;;;45.80;22.70;;;-0.10;99.90;;;;;;5048724;28;20032;-51
2023/12/05 03:22:50;;;;;;;39.92;21.00;;;-0.10;99.90;;;;;;5049502;28;20028;-49
2023/12/05 03:25:16;;;;;;;38.70;20.25;;;-0.20;99.90;;;;;;5048819;28;20551;-51
2023/12/05 03:27:42;;;;;;;41.92;22.15;;;-0.10;99.90;;;;;;5047324;28;20115;-49
2023/12/05 03:30:08;;;;;;;41.13;21.17;;;-0.10;99.90;;;;;;5058036;28;20021;-51
2023/12/05 03:32:34;;;;;;;43.67;23.00;;;-0.20;99.90;;;;;;5048695;28;20745;-51
2023/12/05 03:34:59;;;;;;;46.35;22.88;;;-0.10;99.90;;;;;;5048944;28;20041;-49
2023/12/05 03:37:25;;;;;;;39.45;21.10;;;-0.20;99.90;;;;;;5034997;28;20029;-52
2023/12/05 03:39:50;;;;;;;41.65;21.67;;;-0.10;99.90;;;;;;5031650;28;20028;-48
2023/12/05 03:42:16;;;;;;;44.40;22.42;;;-0.10;99.90;;;;;;5032088;28;20056;-50
2023/12/05 03:44:42;;;;;;;47.72;23.42;;;-0.10;99.90;;;;;;5033703;28;20025;-49
2023/12/05 03:47:07;;;;;;;48.22;23.70;;;-0.10;99.90;;;;;;5034342;28;20014;-52
2023/12/05 03:49:33;;;;;;;42.78;21.10;;;-0.10;99.90;;;;;;5034317;28;20100;-49
2023/12/05 03:52:01;;;;;;;44.53;23.30;;;-0.10;99.90;;;;;;5035569;28;20366;-49
2023/12/05 03:54:27;;;;;;;50.50;23.80;;;-0.10;99.90;;;;;;5028086;28;20521;-49
2023/12/05 03:56:52;;;;;;;45.92;22.83;;;-0.10;99.90;;;;;;5028408;28;20510;-52
2023/12/05 03:59:18;;;;;;;45.63;21.92;;;-0.10;99.90;;;;;;5035472;28;20021;-51
2023/12/05 04:01:44;;;;;;;48.70;23.63;;;-0.10;99.90;;;;;;5048673;28;20082;-49
2023/12/05 04:04:09;;;;;;;49.70;24.27;;;-0.10;99.90;;;;;;5048268;28;20032;-48
2023/12/05 04:06:35;;;;;;;45.22;23.65;;;-0.20;99.90;;;;;;5048191;28;20033;-51
2023/12/05 04:09:00;;;;;;;41.30;22.75;;;-0.20;99.90;;;;;;5047949;28;20490;-49
2023/12/05 04:11:31;;;;;;;44.40;23.52;;;-0.10;99.90;;;;;;5048404;28;20025;-50
2023/12/05 04:13:57;;;;;;;48.58;24.38;;;-0.10;99.90;;;;;;5048440;28;20036;-48
2023/12/05 04:16:23;;;;;;;46.20;23.20;;;-0.20;99.90;;;;;;5048625;28;20017;-49
2023/12/05 04:18:48;;;;;;;46.47;24.17;;;-0.20;99.90;;;;;;5048019;28;20112;-52
2023/12/05 04:21:14;;;;;;;50.60;24.52;;;-0.10;99.90;;;;;;5048784;28;20163;-49
2023/12/05 04:23:40;;;;;;;46.58;22.88;;;-0.20;99.90;;;;;;5049187;28;20033;-49
2023/12/05 04:26:06;;;;;;;49.15;23.20;;;-0.10;99.90;;;;;;5047841;28;20024;-52
2023/12/05 04:28:32;;;;;;;47.97;25.42;;;-0.10;99.90;;;;;;5048256;28;20029;-53
2023/12/05 04:30:58;;;;;;;47.72;24.40;;;-0.10;99.90;;;;;;5048233;28;20505;-52
2023/12/05 04:33:23;;;;;;;44.35;24.00;;;-0.10;99.90;;;;;;5048242;28;20017;-51
2023/12/05 04:35:49;;;;;;;51.95;25.88;;;-0.10;99.90;;;;;;5048261;28;20032;-51
2023/12/05 04:38:16;;;;;;;46.92;24.80;;;0.00;99.90;;;;;;5038939;28;20064;-51
2023/12/05 04:40:41;;;;;;;47.67;23.75;;;-0.10;99.90;;;;;;5046302;28;20549;-51
2023/12/05 04:43:07;;;;;;;51.65;25.65;;;0.00;99.90;;;;;;5048093;28;20035;-49
2023/12/05 04:45:33;;;;;;;47.88;25.30;;;-0.10;99.90;;;;;;5048051;28;20398;-52
2023/12/05 04:47:58;;;;;;;47.83;25.42;;;-0.10;99.90;;;;;;5047985;28;20342;-52
2023/12/05 04:50:24;;;;;;;51.42;24.52;;;-0.10;99.90;;;;;;5046254;28;20310;-52
2023/12/05 04:52:49;;;;;;;48.85;25.05;;;-0.10;99.90;;;;;;5047840;28;20082;-52
2023/12/05 04:55:15;;;;;;;50.10;24.40;;;-0.10;99.90;;;;;;5047914;28;20057;-52
2023/12/05 04:57:40;;;;;;;55.15;26.90;;;0.00;99.90;;;;;;5046232;28;20025;-51
2023/12/05 05:00:08;;;;;;;45.45;24.08;;;-0.10;99.90;;;;;;5063022;28;20025;-49
2023/12/05 05:02:34;;;;;;;54.83;25.77;;;-0.10;99.90;;;;;;5047651;28;20494;-51
2023/12/05 05:05:00;;;;;;;52.38;27.02;;;-0.10;99.90;;;;;;5048972;28;20025;-49
2023/12/05 05:07:25;;;;;;;59.22;28.13;;;-0.10;99.90;;;;;;5051541;28;20115;-48
2023/12/05 05:09:51;;;;;;;52.10;27.02;;;0.00;99.90;;;;;;5051396;28;20487;-49
2023/12/05 05:12:17;;;;;;;54.95;26.88;;;-0.10;99.90;;;;;;5051625;28;20021;-50
2023/12/05 05:14:43;;;;;;;51.45;26.27;;;-0.10;99.90;;;;;;5051452;28;20024;-51
2023/12/05 05:17:09;;;;;;;49.38;26.17;;;-0.10;99.90;;;;;;5051147;28;20025;-49
2023/12/05 05:19:35;;;;;;;55.58;27.40;;;-0.10;99.90;;;;;;5049599;28;20078;-49
2023/12/05 05:22:00;;;;;;;56.70;27.52;;;-0.10;99.90;;;;;;5051425;28;20036;-48
2023/12/05 05:24:26;;;;;;;52.90;26.92;;;-0.10;99.90;;;;;;5051617;28;20055;-53
2023/12/05 05:26:52;;;;;;;54.92;27.42;;;-0.10;99.90;;;;;;5050805;28;20501;-52
2023/12/05 05:29:18;;;;;;;56.08;26.67;;;0.00;99.90;;;;;;5050773;28;20029;-53
2023/12/05 05:31:44;;;;;;;52.25;25.05;;;0.00;99.90;;;;;;5051061;28;20028;-50
2023/12/05 05:34:09;;;;;;;52.03;27.80;;;-0.10;99.90;;;;;;5050881;28;20529;-52
2023/12/05 05:36:35;;;;;;;57.30;28.02;;;0.00;99.90;;;;;;5050802;28;20025;-52
2023/12/05 05:39:00;;;;;;;61.42;27.40;;;0.00;99.90;;;;;;5050824;28;20025;-53
2023/12/05 05:41:26;;;;;;;51.03;26.75;;;0.00;99.90;;;;;;5050975;28;20025;-53
2023/12/05 05:43:52;;;;;;;60.17;29.45;;;0.00;99.90;;;;;;5051568;28;20025;-53
2023/12/05 05:46:18;;;;;;;58.90;28.08;;;0.00;99.90;;;;;;5050738;28;20029;-52
2023/12/05 05:48:44;;;;;;;75.35;31.10;;;0.00;99.90;;;;;;5048754;28;20494;-51
2023/12/05 05:51:09;;;;;;;53.05;26.30;;;0.00;99.90;;;;;;5049318;28;20036;-53
2023/12/05 05:53:35;;;;;;;55.65;28.70;;;0.10;99.90;;;;;;5050988;28;20036;-51
2023/12/05 05:56:01;;;;;;;60.38;28.50;;;0.00;99.90;;;;;;5049557;28;20025;-51
2023/12/05 05:58:27;;;;;;;55.55;27.75;;;0.00;99.90;;;;;;5050692;28;20097;-50
2023/12/05 06:00:53;;;;;;;53.95;27.95;;;0.00;99.90;;;;;;5050317;28;20025;-54
2023/12/05 06:03:19;;;;;;;56.65;27.67;;;0.00;99.90;;;;;;5050457;28;20486;-54
2023/12/05 06:05:44;;;;;;;58.08;27.35;;;0.00;99.90;;;;;;5041520;28;20049;-51
2023/12/05 06:08:10;;;;;;;55.28;28.13;;;0.00;99.90;;;;;;5030497;28;20506;-52
2023/12/05 06:10:36;;;;;;;53.67;27.83;;;0.00;99.90;;;;;;5041262;28;20035;-52
2023/12/05 06:13:01;;;;;;;59.75;28.67;;;0.10;99.90;;;;;;5050566;28;20035;-53
2023/12/05 06:15:27;;;;;;;56.67;29.38;;;0.10;99.90;;;;;;5049978;28;20481;-53
2023/12/05 06:17:53;;;;;;;51.22;27.77;;;0.10;99.90;;;;;;5035182;28;20090;-55
2023/12/05 06:20:18;;;;;;;54.78;27.35;;;0.00;99.90;;;;;;5033144;28;20075;-52
2023/12/05 06:22:44;;;;;;;53.42;28.48;;;0.10;99.90;;;;;;5032571;28;20033;-44
2023/12/05 06:25:10;;;;;;;63.83;29.40;;;0.00;99.90;;;;;;5036578;28;20025;-44
2023/12/05 06:27:35;;;;;;;59.38;29.63;;;0.00;99.90;;;;;;5037290;28;20061;-46
2023/12/05 06:30:01;;;;;;;59.05;29.38;;;0.00;99.90;;;;;;5042819;28;20082;-45
2023/12/05 06:32:26;;;;;;;54.75;28.20;;;0.00;99.90;;;;;;5050066;28;20033;-46
2023/12/05 06:34:52;;;;;;;55.78;28.65;;;0.10;99.90;;;;;;5049807;28;20107;-48
2023/12/05 06:37:18;;;;;;;54.25;29.52;;;0.10;99.90;;;;;;5050311;28;20490;-44
2023/12/05 06:39:43;;;;;;;58.15;28.50;;;0.00;99.90;;;;;;5049345;28;20048;-46
2023/12/05 06:42:09;;;;;;;57.28;27.20;;;0.10;99.90;;;;;;5065355;28;20143;-46
2023/12/05 06:44:34;;;;;;;55.33;29.25;;;0.10;99.90;;;;;;5042406;28;20104;-48
2023/12/05 06:47:00;;;;;;;56.28;29.38;;;0.10;99.90;;;;;;5031668;28;20029;-45
2023/12/05 06:49:26;;;;;;;60.47;31.33;;;0.10;99.90;;;;;;5034321;28;20080;-46
2023/12/05 06:51:57;;;;;;;56.28;27.98;;;0.10;99.90;;;;;;5034402;28;20064;-46
2023/12/05 06:54:22;;;;;;;;;;;0.10;99.90;;;;;;5027674;28;20022;-44
2023/12/05 06:56:48;;;;;;;61.67;29.85;;;0.10;99.90;;;;;;5032046;28;19915;-45
2023/12/05 06:59:14;;;;;;;58.50;29.10;;;0.10;99.90;;;;;;5031029;28;20048;-49
2023/12/05 07:01:40;;;;;;;62.40;31.55;;;0.10;99.90;;;;;;5031912;28;20044;-44
2023/12/05 07:04:06;;;;;;;55.83;28.95;;;0.10;99.90;;;;;;5030999;28;20026;-48
2023/12/05 07:06:32;;;;;;;65.60;30.23;;;0.10;99.90;;;;;;5031379;28;20063;-47
2023/12/05 07:08:58;;;;;;;58.85;28.98;;;0.00;99.90;;;;;;5041726;28;20060;-46
2023/12/05 07:11:27;;;;;;;66.60;30.20;;;0.10;99.90;;;;;;5049778;28;20385;-46
2023/12/05 07:13:53;;;;;;;56.38;28.70;;;0.10;99.90;;;;;;5045645;28;20026;-45
2023/12/05 07:16:19;;;;;;;62.05;30.10;;;0.10;99.90;;;;;;5028642;28;20026;-46
2023/12/05 07:18:49;;;;;;;61.75;30.80;;;0.10;99.90;;;;;;5034581;28;20049;-44
2023/12/05 07:21:14;;;;;;;63.67;31.67;;;0.00;99.90;;;;;;5033122;28;20017;-45
2023/12/05 07:23:40;;;;;;;54.90;29.05;;;0.10;99.90;;;;;;5045707;28;20047;-46
2023/12/05 07:26:06;;;;;;;63.53;29.13;;;0.10;99.90;;;;;;5048776;28;20037;-45
2023/12/05 07:28:31;;;;;;;62.05;29.88;;;0.10;99.90;;;;;;5045329;28;20017;-45
2023/12/05 07:30:57;;;;;;;58.10;30.38;;;0.10;99.90;;;;;;5049446;28;20469;-49
2023/12/05 07:33:23;;;;;;;59.85;29.42;;;0.10;99.90;;;;;;5048816;28;20117;-44
2023/12/05 07:35:48;;;;;;;61.78;29.55;;;0.10;99.90;;;;;;5047307;28;20120;-48
2023/12/05 07:38:15;;;;;;;60.85;29.90;;;0.10;99.90;;;;;;5048576;28;20071;-50
2023/12/05 07:40:40;;;;;;;60.10;30.10;;;0.10;99.90;;;;;;5048620;28;20096;-47
2023/12/05 07:43:06;;;;;;;58.08;29.92;;;0.10;99.90;;;;;;5048582;28;20115;-44
2023/12/05 07:45:31;;;;;;;55.45;28.42;;;0.10;99.90;;;;;;5047360;28;20374;-48
2023/12/05 07:47:57;;;;;;;64.50;29.73;;;0.20;99.90;;;;;;5048697;28;20529;-47
2023/12/05 07:50:22;;;;;;;64.78;29.63;;;0.10;99.90;;;;;;5048750;28;20029;-44
2023/12/05 07:52:51;;;;;;;61.63;30.35;;;0.20;99.90;;;;;;5048744;28;20395;-44
2023/12/05 07:55:20;;;;;;;56.30;28.92;;;0.20;99.90;;;;;;5047129;28;20444;-46
2023/12/05 07:57:47;;;;;;;62.35;31.55;;;0.20;99.90;;;;;;5046772;28;20104;-45
2023/12/05 08:00:17;;;;;;;63.00;30.42;;;0.20;99.90;;;;;;5048280;28;20410;-43
2023/12/05 08:02:46;;;;;;;63.88;29.42;;;0.30;99.90;;;;;;5048401;28;20075;-45
2023/12/05 08:05:12;;;;;;;59.00;29.30;;;0.20;99.90;;;;;;5044286;28;20032;-44
2023/12/05 08:07:39;;;;;;;65.43;31.55;;;0.30;99.90;;;;;;5046302;28;20108;-47
2023/12/05 08:10:09;;;;;;;59.70;30.38;;;0.30;99.90;;;;;;5034656;28;20038;-48
2023/12/05 08:12:35;;;;;;;61.17;31.27;;;0.30;99.90;;;;;;5045666;28;20047;-47
2023/12/05 08:15:01;;;;;;;64.32;31.42;;;0.30;99.90;;;;;;5047928;28;20112;-44
2023/12/05 08:17:27;;;;;;;60.40;30.42;;;0.40;99.90;;;;;;5048343;28;20078;-47
2023/12/05 08:19:54;;;;;;;58.45;30.42;;;0.40;99.90;;;;;;5048037;28;20022;-47
2023/12/05 08:22:21;;;;;;;67.13;31.35;;;0.40;99.90;;;;;;5047144;28;20159;-47
2023/12/05 08:24:47;;;;;;;64.10;33.03;;;0.40;99.90;;;;;;5046522;28;20314;-45
2023/12/05 08:27:13;;;;;;;55.60;30.15;;;0.40;99.90;;;;;;5047752;28;20028;-45
2023/12/05 08:29:39;;;;;;;55.83;27.83;;;0.40;99.90;;;;;;5047264;28;20036;-44
2023/12/05 08:32:07;;;;;;;55.92;29.08;;;0.40;99.90;;;;;;5045735;28;20028;-46
2023/12/05 08:34:33;;;;;;;56.28;29.75;;;0.40;99.90;;;;;;5047650;28;20028;-45
2023/12/05 08:37:00;;;;;;;58.00;29.65;;;0.40;99.90;;;;;;5047548;28;20017;-45
2023/12/05 08:39:25;;;;;;;57.60;29.00;;;0.40;99.90;;;;;;5038015;28;20402;-45
2023/12/05 08:41:51;;;;;;;64.45;30.13;;;0.40;99.90;;;;;;5044195;28;20033;-47
2023/12/05 08:44:18;;;;;;;58.05;29.38;;;0.40;99.90;;;;;;5066913;28;20017;-44
2023/12/05 08:46:44;;;;;;;60.17;29.52;;;0.40;99.90;;;;;;5051461;28;20052;-47
2023/12/05 08:49:09;;;;;;;58.83;28.83;;;0.50;99.90;;;;;;5051436;28;20502;-46
2023/12/05 08:51:35;;;;;;;60.70;29.02;;;0.40;99.90;;;;;;5051599;28;20032;-44
2023/12/05 08:54:00;;;;;;;60.30;28.55;;;0.50;99.90;;;;;;5051562;28;20017;-44
2023/12/05 08:56:26;;;;;;;61.83;28.10;;;0.40;99.90;;;;;;5051868;28;20032;-45
2023/12/05 08:58:52;;;;;;;58.90;30.10;;;0.50;99.90;;;;;;5051008;28;20024;-45
2023/12/05 09:01:17;;;;;;;53.88;26.50;;;0.50;99.90;;;;;;5051449;28;20515;-45
2023/12/05 09:03:43;;;;;;;55.33;27.95;;;0.50;99.90;;;;;;5051221;28;20068;-47
2023/12/05 09:06:09;;;;;;;56.47;27.90;;;0.50;99.90;;;;;;5050213;28;20033;-44
2023/12/05 09:08:35;;;;;;;56.75;29.38;;;0.50;99.90;;;;;;5050874;28;20036;-45
2023/12/05 09:11:00;;;;;;;56.60;28.95;;;0.60;99.90;;;;;;5051169;28;20021;-46
2023/12/05 09:13:26;;;;;;;51.25;26.98;;;0.60;99.90;;;;;;5051349;28;20535;-46
2023/12/05 09:15:52;;;;;;;54.58;26.92;;;0.60;99.90;;;;;;5051447;28;20025;-46
2023/12/05 09:18:17;;;;;;;53.03;25.63;;;0.60;99.90;;;;;;5050906;28;20021;-46
2023/12/05 09:20:43;;;;;;;56.20;26.75;;;0.60;99.90;;;;;;5051198;28;20032;-47
2023/12/05 09:23:08;;;;;;;58.03;28.52;;;0.60;99.90;;;;;;5038888;28;20037;-46
2023/12/05 09:25:34;;;;;;;48.88;26.80;;;0.60;99.90;;;;;;5048573;28;20105;-47
2023/12/05 09:28:00;;;;;;;48.50;26.58;;;0.70;99.90;;;;;;5050768;28;20304;-44
2023/12/05 09:30:26;;;;;;;55.35;25.50;;;0.70;99.90;;;;;;5048799;28;20028;-46
2023/12/05 09:32:51;;;;;;;50.95;25.70;;;0.70;99.90;;;;;;5066119;28;20296;-45
2023/12/05 09:35:17;;;;;;;50.22;24.98;;;0.70;99.90;;;;;;5050871;28;20094;-46
2023/12/05 09:37:42;;;;;;;48.78;24.77;;;0.70;99.90;;;;;;5050561;28;20096;-47
2023/12/05 09:40:09;;;;;;;53.80;27.38;;;0.70;99.90;;;;;;5050663;28;20029;-48
2023/12/05 09:42:35;;;;;;;52.72;26.13;;;0.80;99.90;;;;;;5049806;28;20075;-46
2023/12/05 09:45:06;;;;;;;50.17;25.65;;;0.80;99.90;;;;;;5042424;28;20036;-47
2023/12/05 09:47:33;;;;;;;50.90;27.17;;;0.90;99.90;;;;;;5050737;28;20025;-45
2023/12/05 09:50:00;;;;;;;46.63;24.25;;;0.90;99.90;;;;;;5049176;28;20116;-45
2023/12/05 09:52:27;;;;;;;56.58;26.63;;;0.90;99.90;;;;;;5050684;28;20104;-45
2023/12/05 09:54:53;;;;;;;46.53;24.98;;;0.90;99.90;;;;;;5050739;28;20025;-47
2023/12/05 09:57:19;;;;;;;50.67;26.35;;;1.00;99.90;;;;;;5050768;28;20029;-44
2023/12/05 09:59:45;;;;;;;52.75;26.55;;;1.00;99.90;;;;;;5050174;28;20017;-44
2023/12/05 10:02:13;;;;;;;50.33;25.40;;;1.00;99.90;;;;;;5050619;28;20508;-44
2023/12/05 10:04:43;;;;;;;46.53;24.42;;;1.00;99.90;;;;;;5050627;28;20028;-48
2023/12/05 10:07:12;;;;;;;47.17;24.13;;;1.10;99.90;;;;;;5050269;28;20090;-45
2023/12/05 10:09:41;;;;;;;51.67;24.55;;;1.10;99.90;;;;;;5050171;28;20067;-46
2023/12/05 10:12:08;;;;;;;47.20;23.85;;;1.20;99.90;;;;;;5050557;28;20028;-44
2023/12/05 10:14:34;;;;;;;47.03;24.67;;;1.20;99.90;;;;;;5049966;28;20025;-45
2023/12/05 10:17:01;;;;;;;47.33;25.45;;;1.20;99.90;;;;;;5050431;28;20474;-46
2023/12/05 10:19:28;;;;;;;47.92;24.38;;;1.20;99.90;;;;;;5050063;28;20028;-48
2023/12/05 10:21:55;;;;;;;47.80;24.98;;;1.10;99.90;;;;;;5034139;28;20027;-45
2023/12/05 10:24:21;;;;;;;47.08;25.02;;;1.20;99.90;;;;;;5049749;28;20020;-46
2023/12/05 10:26:47;;;;;;;51.17;25.48;;;1.20;99.90;;;;;;5049425;28;20098;-46
2023/12/05 10:29:15;;;;;;;50.60;25.00;;;1.20;99.90;;;;;;5049602;28;20068;-47
2023/12/05 10:31:42;;;;;;;46.38;24.58;;;1.10;99.90;;;;;;5040782;28;20033;-49
2023/12/05 10:34:08;;;;;;;47.53;24.98;;;1.20;99.90;;;;;;5041996;28;20031;-48
2023/12/05 10:36:35;;;;;;;50.85;24.98;;;1.20;99.90;;;;;;5050052;28;20039;-49
2023/12/05 10:39:02;;;;;;;51.35;25.98;;;1.30;99.90;;;;;;5049399;28;20017;-48
2023/12/05 10:41:29;;;;;;;52.28;26.40;;;1.20;99.90;;;;;;5049657;28;20017;-47
2023/12/05 10:43:55;;;;;;;60.05;29.42;;;1.20;99.90;;;;;;5049604;28;20021;-45
2023/12/05 10:46:24;;;;;;;50.47;24.58;;;1.20;99.90;;;;;;5049530;28;20108;-49
2023/12/05 10:48:49;;;;;;;49.63;26.98;;;1.30;99.90;;;;;;5049154;28;20021;-45
2023/12/05 10:51:15;;;;;;;55.10;25.90;;;1.30;99.90;;;;;;5049167;28;20363;-44
2023/12/05 10:53:41;;;;;;;52.83;27.02;;;1.30;99.90;;;;;;5032181;28;20113;-44
2023/12/05 10:56:11;;;;;;;53.53;25.98;;;1.40;99.90;;;;;;5028649;28;20014;-47
2023/12/05 10:58:39;;;;;;;54.50;27.65;;;1.40;99.90;;;;;;5032103;28;20095;-46
2023/12/05 11:01:08;;;;;;;46.88;25.25;;;1.40;99.90;;;;;;5031446;28;20021;-46
2023/12/05 11:03:36;;;;;;;50.40;25.90;;;1.50;99.90;;;;;;5031366;28;20022;-44
2023/12/05 11:06:02;;;;;;;52.42;27.48;;;1.50;99.90;;;;;;5028802;28;20033;-44
2023/12/05 11:08:28;;;;;;;54.33;28.25;;;1.50;99.90;;;;;;5030627;28;20556;-45
2023/12/05 11:10:55;;;;;;;47.55;25.30;;;1.50;99.90;;;;;;5034631;28;20025;-48
2023/12/05 11:13:21;;;;;;;57.40;29.05;;;1.60;99.90;;;;;;5032483;28;20387;-49
2023/12/05 11:15:49;;;;;;;53.25;27.38;;;1.50;99.90;;;;;;5033227;28;20037;-47
2023/12/05 11:18:30;;;;;;;49.15;25.52;;;1.60;99.90;;;;;;5030137;28;20493;-48
2023/12/05 11:21:33;;;;;;;56.95;26.85;;;1.60;99.90;;;;;;5031277;28;20112;-45
2023/12/05 11:24:09;;;;;;;50.45;26.33;;;1.60;99.90;;;;;;5027763;28;20071;-48
2023/12/05 11:27:19;;;;;;;53.70;27.10;;;1.70;99.90;;;;;;5026670;28;20052;-46
2023/12/05 11:30:26;;;;;;;54.45;25.90;;;1.70;99.90;;;;;;5019090;28;20033;-44
2023/12/05 11:33:29;;;;;;;52.50;26.63;;;1.70;99.90;;;;;;5024258;28;20056;-46
2023/12/05 11:36:22;;;;;;;53.58;27.23;;;1.80;99.90;;;;;;5016451;28;20079;-46
2023/12/05 11:38:48;;;;;;;51.17;26.40;;;1.80;99.90;;;;;;5027525;28;20036;-49
2023/12/05 11:41:20;;;;;;;53.25;26.65;;;1.80;99.90;;;;;;5028599;28;20068;-44
2023/12/05 11:44:11;;;;;;;48.35;25.33;;;1.80;99.90;;;;;;5040271;28;20486;-45
2023/12/05 11:46:36;;;;;;;51.33;25.45;;;1.80;99.90;;;;;;5047221;28;20057;-49
2023/12/05 11:49:03;;;;;;;51.25;25.55;;;1.70;99.90;;;;;;5048188;28;20067;-44
2023/12/05 11:51:36;;;;;;;52.28;26.27;;;1.70;99.90;;;;;;5048359;28;20021;-45
2023/12/05 11:54:02;;;;;;;50.78;25.80;;;1.80;99.90;;;;;;5048796;28;20632;-44
2023/12/05 11:56:28;;;;;;;50.55;25.60;;;1.80;99.90;;;;;;5048851;28;20064;-47
2023/12/05 11:59:13;;;;;;;50.88;25.92;;;1.70;99.90;;;;;;5048381;28;20059;-48
2023/12/05 12:01:40;;;;;;;50.25;25.25;;;1.80;99.90;;;;;;5043454;28;20554;-48
2023/12/05 12:04:20;;;;;;;52.95;26.63;;;1.80;99.90;;;;;;5027823;28;20029;-48
2023/12/05 12:06:50;;;;;;;48.85;24.88;;;1.90;99.90;;;;;;5030177;28;20099;-44
2023/12/05 12:09:16;;;;;;;47.25;26.10;;;1.90;99.90;;;;;;5031282;28;20045;-49
2023/12/05 12:11:43;;;;;;;51.97;24.80;;;1.90;99.90;;;;;;5035586;28;20238;-46
2023/12/05 12:14:16;;;;;;;47.28;25.23;;;1.90;99.90;;;;;;5040016;28;20055;-46
2023/12/05 12:16:42;;;;;;;50.03;25.15;;;1.90;99.90;;;;;;5054753;28;20106;-49
2023/12/05 12:19:12;;;;;;;49.92;25.92;;;1.90;99.90;;;;;;5045176;28;20022;-44
2023/12/05 12:21:38;;;;;;;48.42;25.75;;;1.90;99.90;;;;;;5034561;28;20487;-45
2023/12/05 12:24:04;;;;;;;51.53;26.23;;;1.90;99.90;;;;;;5034680;28;20030;-47
2023/12/05 12:26:32;;;;;;;50.08;26.63;;;1.90;99.90;;;;;;5033988;28;20111;-45
2023/12/05 12:29:08;;;;;;;45.95;24.17;;;1.90;99.90;;;;;;5034361;28;20021;-47
2023/12/05 12:31:35;;;;;;;52.47;26.02;;;2.00;99.90;;;;;;5034330;28;20135;-45
2023/12/05 12:34:02;;;;;;;49.58;27.05;;;2.00;99.90;;;;;;5032950;28;20072;-47
2023/12/05 12:36:31;;;;;;;48.88;25.10;;;2.00;99.90;;;;;;5034409;28;20075;-45